Time;durP1;ratioP1;P1;durP2;ratioP2;P2;SDS_P1;SDS_P2;PMS_P1;PMS_P2;Temp;Humidity;BMP_temperature;BMP_pressure;BME280_temperature;BME280_humidity;BME280_pressure;Samples;Min_cycle;Max_cycle;Signal;HPM_P1;HPM_P2
2022/12/28 00:01:05;;;;;;;16.13;8.10;;;5.70;99.90;;;;;;4904105;29;20094;-81
2022/12/28 00:03:31;;;;;;;13.55;7.90;;;5.60;99.90;;;;;;4908141;29;20146;-81
2022/12/28 00:06:00;;;;;;;14.38;8.07;;;5.70;99.90;;;;;;4897141;29;20142;-81
2022/12/28 00:08:25;;;;;;;13.13;7.55;;;5.80;99.90;;;;;;4907531;29;20044;-81
2022/12/28 00:10:51;;;;;;;14.10;8.20;;;5.70;99.90;;;;;;4902672;29;20051;-81
2022/12/28 00:13:17;;;;;;;10.50;7.55;;;5.70;99.90;;;;;;4880430;29;20043;-81
2022/12/28 00:15:46;;;;;;;13.85;9.13;;;5.60;99.90;;;;;;4886517;29;20048;-81
2022/12/28 00:18:11;;;;;;;15.80;8.55;;;5.70;99.90;;;;;;4909593;29;20379;-81
2022/12/28 00:20:37;;;;;;;15.70;9.15;;;5.60;99.90;;;;;;4903915;29;20055;-81
2022/12/28 00:23:06;;;;;;;14.52;9.05;;;5.70;99.90;;;;;;4888693;29;20099;-81
2022/12/28 00:25:35;;;;;;;15.10;9.25;;;5.70;99.90;;;;;;4904539;29;20477;-80
2022/12/28 00:28:01;;;;;;;16.98;9.32;;;5.70;99.90;;;;;;4908668;29;20512;-81
2022/12/28 00:30:27;;;;;;;13.73;9.85;;;5.70;99.90;;;;;;4913483;29;20040;-81
2022/12/28 00:32:52;;;;;;;17.42;10.82;;;5.60;99.90;;;;;;4908834;29;20046;-81
2022/12/28 00:35:18;;;;;;;14.82;10.07;;;5.60;99.90;;;;;;4911369;29;20047;-81
2022/12/28 00:37:44;;;;;;;14.82;9.45;;;5.70;99.90;;;;;;4902522;29;20044;-80
2022/12/28 00:40:10;;;;;;;14.05;10.20;;;5.70;99.90;;;;;;4888443;29;20071;-80
2022/12/28 00:42:35;;;;;;;14.98;9.40;;;5.70;99.90;;;;;;4909144;29;20461;-81
2022/12/28 00:45:01;;;;;;;14.55;9.23;;;5.70;99.90;;;;;;4910106;29;20055;-79
2022/12/28 00:47:27;;;;;;;16.88;10.48;;;5.60;99.90;;;;;;4905892;29;20039;-80
2022/12/28 00:49:53;;;;;;;15.55;10.00;;;5.70;99.90;;;;;;4893502;29;20076;-80
2022/12/28 00:52:18;;;;;;;13.98;9.55;;;5.70;99.90;;;;;;4908922;29;20122;-81
2022/12/28 00:54:44;;;;;;;15.50;10.10;;;5.70;99.90;;;;;;4891606;29;20059;-80
2022/12/28 00:57:10;;;;;;;16.17;10.88;;;5.70;99.90;;;;;;4910396;29;20050;-80
2022/12/28 00:59:35;;;;;;;15.95;9.63;;;5.70;99.90;;;;;;4911415;29;20050;-80
2022/12/28 01:02:01;;;;;;;17.23;11.38;;;5.70;99.90;;;;;;4893480;29;20040;-80
2022/12/28 01:04:27;;;;;;;14.80;9.70;;;5.70;99.90;;;;;;4904739;29;20523;-79
2022/12/28 01:06:53;;;;;;;13.10;9.13;;;5.70;99.90;;;;;;4893040;29;20050;-79
2022/12/28 01:09:19;;;;;;;13.48;9.63;;;5.70;99.90;;;;;;4888024;29;20661;-80
2022/12/28 01:11:44;;;;;;;15.18;9.20;;;5.70;99.90;;;;;;4911234;29;20059;-80
2022/12/28 01:14:10;;;;;;;13.32;9.85;;;5.70;99.90;;;;;;4888558;29;20047;-81
2022/12/28 01:16:36;;;;;;;13.10;9.10;;;5.70;99.90;;;;;;4884961;29;20078;-79
2022/12/28 01:19:04;;;;;;;12.10;9.70;;;5.70;99.90;;;;;;4910467;29;20051;-79
2022/12/28 01:21:32;;;;;;;16.17;9.93;;;5.70;99.90;;;;;;4888525;29;21234;-79
2022/12/28 01:24:02;;;;;;;15.25;9.23;;;5.70;99.90;;;;;;4887573;29;20127;-68
2022/12/28 01:26:28;;;;;;;14.40;9.48;;;5.80;99.90;;;;;;4886395;29;20130;-68
2022/12/28 01:28:54;;;;;;;13.90;9.95;;;5.80;99.90;;;;;;4903816;29;20498;-68
2022/12/28 01:31:21;;;;;;;14.60;10.55;;;5.80;99.90;;;;;;4868731;29;20119;-67
2022/12/28 01:33:50;;;;;;;16.13;11.27;;;5.80;99.90;;;;;;4887862;29;20782;-70
2022/12/28 01:36:24;;;;;;;13.43;9.75;;;5.80;99.90;;;;;;4903505;29;20047;-70
2022/12/28 01:38:56;;;;;;;16.10;10.35;;;5.80;99.90;;;;;;4884313;29;20083;-70
2022/12/28 01:41:24;;;;;;;17.42;10.32;;;5.80;99.90;;;;;;4899608;29;20048;-70
2022/12/28 01:43:53;;;;;;;15.10;10.80;;;5.80;99.90;;;;;;4901387;29;20055;-70
2022/12/28 01:46:42;;;;;;;18.20;10.65;;;5.80;99.90;;;;;;4884900;29;20059;-68
2022/12/28 01:49:47;;;;;;;13.73;10.55;;;5.80;99.90;;;;;;4904141;29;20127;-71
2022/12/28 01:52:52;;;;;;;15.93;12.05;;;5.80;99.90;;;;;;4889373;29;20066;-71
2022/12/28 01:55:22;;;;;;;16.70;11.60;;;5.80;99.90;;;;;;4902969;29;20134;-70
2022/12/28 01:57:51;;;;;;;;;;;5.90;99.90;;;;;;4892849;29;20126;-68
2022/12/28 02:00:18;;;;;;;17.98;12.00;;;5.90;99.90;;;;;;4899572;29;20429;-71
2022/12/28 02:03:01;;;;;;;15.68;11.35;;;5.90;99.90;;;;;;4886445;29;20040;-71
2022/12/28 02:05:36;;;;;;;13.15;10.57;;;6.00;99.90;;;;;;4903918;29;20784;-70
2022/12/28 02:08:08;;;;;;;19.58;12.60;;;6.00;99.90;;;;;;4898804;29;20051;-70
2022/12/28 02:10:36;;;;;;;15.93;11.43;;;5.90;99.90;;;;;;4886719;29;20510;-78
2022/12/28 02:13:03;;;;;;;18.73;12.88;;;5.90;99.90;;;;;;4878792;29;20134;-77
2022/12/28 02:15:29;;;;;;;16.48;12.75;;;6.00;99.90;;;;;;4872146;29;20066;-78
2022/12/28 02:17:55;;;;;;;20.05;13.70;;;6.00;99.90;;;;;;4890846;29;20063;-78
2022/12/28 02:20:26;;;;;;;16.73;13.85;;;6.00;99.90;;;;;;4906737;29;20542;-79
2022/12/28 02:23:04;;;;;;;16.77;13.30;;;6.00;99.90;;;;;;4889330;29;20055;-80
2022/12/28 02:26:07;;;;;;;20.35;14.43;;;6.00;99.90;;;;;;4889546;29;20043;-79
2022/12/28 02:29:14;;;;;;;17.20;14.38;;;5.90;99.90;;;;;;4903811;29;20541;-79
2022/12/28 02:32:06;;;;;;;19.13;15.30;;;5.90;99.90;;;;;;4887748;29;20050;-78
2022/12/28 02:34:56;;;;;;;17.80;14.35;;;6.00;99.90;;;;;;4916599;28;20056;-81
2022/12/28 02:37:43;;;;;;;18.92;15.57;;;5.90;99.90;;;;;;4906259;29;20123;-79
2022/12/28 02:40:11;;;;;;;16.75;15.02;;;6.00;99.90;;;;;;4905705;29;20134;-79
2022/12/28 02:42:38;;;;;;;20.60;16.77;;;6.00;99.90;;;;;;4887321;29;20079;-80
2022/12/28 02:50:53;;;;;;;21.58;16.58;;;6.00;99.90;;;;;;4889990;29;20139;-80
2022/12/28 02:53:31;;;;;;;18.85;16.48;;;6.00;99.90;;;;;;4902532;29;20091;-79
2022/12/28 02:56:13;;;;;;;18.80;16.35;;;6.10;99.90;;;;;;4905063;29;20135;-80
2022/12/28 02:59:16;;;;;;;18.55;16.80;;;6.10;99.90;;;;;;4903390;29;20032;-69
2022/12/28 03:01:52;;;;;;;19.02;16.77;;;6.10;99.90;;;;;;4884740;29;20123;-69
2022/12/28 03:04:40;;;;;;;18.90;16.30;;;6.10;99.90;;;;;;4891681;29;20040;-69
2022/12/28 03:10:32;;;;;;;20.33;16.42;;;6.20;99.90;;;;;;4908860;29;20055;-69
2022/12/28 03:13:43;;;;;;;24.92;17.90;;;6.20;99.90;;;;;;4902180;29;20437;-69
2022/12/28 03:16:30;;;;;;;19.45;16.70;;;6.20;99.90;;;;;;4887027;29;20115;-70
2022/12/28 03:33:04;;;;;;;22.40;17.80;;;6.40;99.90;;;;;;4900848;29;20059;-81
2022/12/28 03:35:49;;;;;;;18.23;16.40;;;6.40;99.90;;;;;;4885450;29;20645;-80
2022/12/28 03:38:43;;;;;;;17.27;15.52;;;6.50;99.90;;;;;;4895025;29;20665;-76
2022/12/28 03:41:14;;;;;;;21.05;17.77;;;6.50;99.90;;;;;;4907074;29;20266;-80
2022/12/28 03:43:52;;;;;;;16.70;15.00;;;6.50;99.90;;;;;;4907143;29;20212;-82
2022/12/28 03:46:57;;;;;;;17.98;16.08;;;6.50;99.90;;;;;;4903620;29;20053;-81
2022/12/28 03:49:24;;;;;;;17.30;14.15;;;6.50;99.90;;;;;;4913057;28;20575;-80
2022/12/28 03:51:51;;;;;;;16.67;14.93;;;6.60;99.90;;;;;;4889237;29;20047;-80
2022/12/28 03:54:17;;;;;;;17.60;15.15;;;6.60;99.90;;;;;;4906998;29;20111;-81
2022/12/28 03:56:49;;;;;;;16.55;14.93;;;6.70;99.90;;;;;;4908560;29;20059;-81
2022/12/28 03:59:15;;;;;;;15.55;13.95;;;6.70;99.90;;;;;;4888661;29;20372;-80
2022/12/28 04:01:44;;;;;;;15.50;13.90;;;6.70;99.90;;;;;;4890923;29;20044;-81
2022/12/28 04:04:13;;;;;;;15.63;14.05;;;6.80;99.90;;;;;;4911693;29;20586;-80
2022/12/28 04:06:39;;;;;;;14.98;13.38;;;6.70;99.90;;;;;;4906007;29;20052;-81
2022/12/28 04:09:05;;;;;;;15.55;14.05;;;6.70;99.90;;;;;;4909836;29;20040;-80
2022/12/28 04:11:32;;;;;;;16.42;14.75;;;6.80;99.90;;;;;;4914278;29;20048;-79
2022/12/28 04:13:58;;;;;;;16.83;15.02;;;6.70;99.90;;;;;;4913793;29;20048;-81
2022/12/28 04:16:24;;;;;;;14.88;13.27;;;6.80;99.90;;;;;;4905363;29;20040;-79
2022/12/28 04:18:49;;;;;;;15.20;13.80;;;6.80;99.90;;;;;;4903790;29;20048;-81
2022/12/28 04:21:18;;;;;;;14.57;13.15;;;6.80;99.90;;;;;;4898180;29;20041;-81
2022/12/28 04:23:44;;;;;;;16.05;14.43;;;6.80;99.90;;;;;;4880732;29;20048;-79
2022/12/28 04:26:12;;;;;;;15.43;13.85;;;6.80;99.90;;;;;;4879278;29;20063;-81
2022/12/28 04:28:39;;;;;;;18.00;14.18;;;6.90;99.90;;;;;;4906125;29;20720;-81
2022/12/28 04:31:07;;;;;;;16.15;14.57;;;6.80;99.90;;;;;;4907713;29;20059;-80
2022/12/28 04:33:34;;;;;;;15.00;13.52;;;6.90;99.90;;;;;;4892902;29;20048;-80
2022/12/28 04:36:10;;;;;;;14.65;13.20;;;6.90;99.90;;;;;;4914311;29;20051;-79
2022/12/28 04:38:36;;;;;;;14.75;13.25;;;6.90;99.90;;;;;;4909090;29;20151;-80
2022/12/28 04:41:03;;;;;;;15.18;13.75;;;6.90;99.90;;;;;;4907916;29;20419;-80
2022/12/28 04:43:29;;;;;;;16.02;14.43;;;6.90;99.90;;;;;;4904180;29;20140;-81
2022/12/28 04:45:57;;;;;;;16.10;14.50;;;7.00;99.90;;;;;;4894941;29;20062;-81
2022/12/28 04:48:23;;;;;;;15.93;14.43;;;7.00;99.90;;;;;;4914232;29;20056;-80
2022/12/28 04:50:49;;;;;;;16.15;14.48;;;7.00;99.90;;;;;;4875514;29;20547;-81
2022/12/28 04:53:15;;;;;;;15.98;14.43;;;7.00;99.90;;;;;;4907310;29;20156;-81
2022/12/28 04:55:41;;;;;;;16.20;14.65;;;7.00;99.90;;;;;;4909500;29;20395;-79
2022/12/28 04:58:06;;;;;;;15.45;13.95;;;7.00;99.90;;;;;;4915085;29;20052;-81
2022/12/28 05:00:32;;;;;;;14.20;12.90;;;7.10;99.90;;;;;;4892128;29;20348;-79
2022/12/28 05:02:59;;;;;;;15.55;14.05;;;7.10;99.90;;;;;;4888308;29;20054;-80
2022/12/28 05:05:26;;;;;;;17.45;15.65;;;7.10;99.90;;;;;;4900523;29;20051;-80
2022/12/28 05:07:52;;;;;;;16.20;14.70;;;7.10;99.90;;;;;;4882353;29;20044;-79
2022/12/28 05:10:18;;;;;;;16.55;15.05;;;7.10;99.90;;;;;;4912067;29;20043;-81
2022/12/28 05:12:44;;;;;;;16.58;14.98;;;7.20;99.90;;;;;;4908989;29;20116;-80
2022/12/28 05:15:10;;;;;;;16.65;15.15;;;7.20;99.90;;;;;;4883188;29;20130;-80
2022/12/28 05:17:36;;;;;;;17.48;15.80;;;7.20;99.90;;;;;;4899516;29;20203;-81
2022/12/28 05:20:06;;;;;;;19.35;17.33;;;7.20;99.90;;;;;;4911544;29;20566;-80
2022/12/28 05:22:32;;;;;;;18.48;16.67;;;7.30;99.90;;;;;;4909197;29;20142;-80
2022/12/28 05:25:01;;;;;;;17.77;16.08;;;7.40;99.90;;;;;;4894990;29;20048;-80
2022/12/28 05:27:27;;;;;;;19.00;17.20;;;7.40;99.90;;;;;;4900898;29;20051;-81
2022/12/28 05:29:53;;;;;;;18.67;17.08;;;7.40;99.90;;;;;;4893169;29;20704;-80
2022/12/28 05:32:19;;;;;;;19.33;17.52;;;7.50;99.90;;;;;;4911646;29;20695;-80
2022/12/28 05:34:48;;;;;;;20.33;18.52;;;7.50;99.90;;;;;;4915716;29;20051;-80
2022/12/28 05:37:14;;;;;;;20.58;18.67;;;7.50;99.90;;;;;;4915314;29;20047;-81
2022/12/28 05:39:39;;;;;;;21.10;19.10;;;7.60;99.90;;;;;;4912727;29;20123;-80
2022/12/28 05:42:05;;;;;;;19.60;17.80;;;7.60;99.90;;;;;;4901070;29;20047;-80
2022/12/28 05:44:31;;;;;;;21.05;19.15;;;7.60;99.90;;;;;;4912041;29;20049;-81
2022/12/28 05:46:57;;;;;;;21.50;19.50;;;7.60;99.90;;;;;;4915957;29;20126;-81
2022/12/28 05:49:22;;;;;;;22.45;20.27;;;7.70;99.90;;;;;;4915376;29;20051;-80
2022/12/28 05:51:52;;;;;;;22.77;20.70;;;7.70;99.90;;;;;;4913871;29;20102;-80
2022/12/28 05:54:17;;;;;;;22.88;20.55;;;7.70;99.90;;;;;;4880198;29;20585;-77
2022/12/28 05:56:44;;;;;;;23.42;21.27;;;7.70;99.90;;;;;;4910677;29;20296;-79
2022/12/28 05:59:12;;;;;;;24.20;21.83;;;7.80;99.90;;;;;;4913256;29;20146;-81
2022/12/28 06:01:41;;;;;;;23.98;21.67;;;7.80;99.90;;;;;;4909918;29;20550;-81
2022/12/28 06:04:13;;;;;;;22.85;20.73;;;7.80;99.90;;;;;;4914935;29;20055;-81
2022/12/28 06:06:39;;;;;;;24.58;22.27;;;7.80;99.90;;;;;;4914108;29;20056;-81
2022/12/28 06:09:11;;;;;;;23.33;21.13;;;7.90;99.90;;;;;;4896917;29;20055;-82
2022/12/28 06:11:37;;;;;;;22.35;20.42;;;8.00;99.90;;;;;;4909951;29;20494;-81
2022/12/28 06:14:04;;;;;;;23.80;21.52;;;7.90;99.90;;;;;;4898458;29;20054;-81
2022/12/28 06:16:35;;;;;;;24.10;21.90;;;8.00;99.90;;;;;;4912800;29;20039;-82
2022/12/28 06:19:10;;;;;;;24.30;22.10;;;8.00;99.90;;;;;;4898209;29;20135;-80
2022/12/28 06:21:38;;;;;;;24.45;22.05;;;8.00;99.90;;;;;;4903350;29;20423;-81
2022/12/28 06:24:05;;;;;;;22.08;20.08;;;8.00;99.90;;;;;;4906883;29;20146;-81
2022/12/28 06:26:33;;;;;;;23.25;21.10;;;8.00;99.90;;;;;;4916111;29;20043;-82
2022/12/28 06:29:00;;;;;;;24.45;22.25;;;8.10;99.90;;;;;;4899170;29;20333;-81
2022/12/28 06:31:35;;;;;;;22.60;20.67;;;8.10;99.90;;;;;;4910200;28;20051;-79
2022/12/28 06:34:03;;;;;;;22.10;20.10;;;8.10;99.90;;;;;;4901175;29;20055;-81
2022/12/28 06:36:31;;;;;;;21.55;19.65;;;8.10;99.90;;;;;;4911058;29;20039;-78
2022/12/28 06:38:58;;;;;;;20.58;18.88;;;8.20;99.90;;;;;;4910366;29;20090;-80
2022/12/28 06:41:25;;;;;;;21.88;19.92;;;8.20;99.90;;;;;;4893891;29;20047;-80
2022/12/28 06:43:52;;;;;;;21.17;19.38;;;8.20;99.90;;;;;;4921874;28;20051;-80
2022/12/28 06:46:19;;;;;;;21.15;19.25;;;8.20;99.90;;;;;;4910705;29;20063;-79
2022/12/28 06:48:45;;;;;;;21.73;19.63;;;8.30;99.90;;;;;;4895084;29;20130;-80
2022/12/28 06:51:17;;;;;;;19.80;17.90;;;8.30;99.90;;;;;;4888685;29;20498;-80
2022/12/28 06:53:47;;;;;;;20.48;18.58;;;8.30;99.90;;;;;;4892558;29;20062;-79
2022/12/28 06:56:22;;;;;;;19.02;17.33;;;8.30;99.90;;;;;;4912075;29;20406;-80
2022/12/28 06:58:49;;;;;;;19.65;17.85;;;8.30;99.90;;;;;;4905418;29;20449;-80
2022/12/28 07:01:19;;;;;;;18.42;16.73;;;8.30;99.90;;;;;;4887002;29;20534;-78
2022/12/28 07:03:47;;;;;;;20.60;18.80;;;8.30;99.90;;;;;;4911353;29;20054;-80
2022/12/28 07:06:15;;;;;;;20.63;18.75;;;8.30;99.90;;;;;;4892494;29;20044;-79
2022/12/28 07:08:41;;;;;;;20.05;18.25;;;8.40;99.90;;;;;;4913324;28;20126;-80
2022/12/28 07:11:10;;;;;;;19.67;18.00;;;8.40;99.90;;;;;;4906889;29;20139;-79
2022/12/28 07:13:36;;;;;;;21.30;19.30;;;8.40;99.90;;;;;;4908235;29;20078;-77
2022/12/28 07:16:08;;;;;;;21.60;19.65;;;8.40;99.90;;;;;;4908472;29;20051;-78
2022/12/28 07:18:34;;;;;;;22.20;20.20;;;8.40;99.90;;;;;;4921563;29;20044;-76
2022/12/28 07:21:03;;;;;;;21.33;19.55;;;8.40;99.90;;;;;;4910751;29;20050;-78
2022/12/28 07:23:30;;;;;;;23.42;21.27;;;8.40;99.90;;;;;;4906695;29;20077;-78
2022/12/28 07:26:02;;;;;;;23.77;21.67;;;8.50;99.90;;;;;;4858137;29;20539;-78
2022/12/28 07:28:28;;;;;;;25.05;22.75;;;8.50;99.90;;;;;;4909051;29;20599;-81
2022/12/28 07:30:54;;;;;;;23.48;21.38;;;8.50;99.90;;;;;;4889400;29;20048;-79
2022/12/28 07:33:20;;;;;;;22.98;20.73;;;8.50;99.90;;;;;;4905519;29;20042;-81
2022/12/28 07:35:45;;;;;;;24.60;22.30;;;8.50;99.90;;;;;;4906427;29;20118;-70
2022/12/28 07:38:11;;;;;;;23.05;20.95;;;8.60;99.90;;;;;;4902348;29;20052;-70
2022/12/28 07:40:37;;;;;;;24.20;21.88;;;8.60;99.90;;;;;;4890353;29;20112;-70
2022/12/28 07:43:03;;;;;;;22.45;20.45;;;8.60;99.90;;;;;;4881281;29;20071;-70
2022/12/28 07:45:29;;;;;;;23.65;21.58;;;8.60;99.90;;;;;;4904180;29;20040;-70
2022/12/28 07:47:54;;;;;;;20.98;19.08;;;8.60;99.90;;;;;;4905371;29;20507;-78
2022/12/28 07:50:20;;;;;;;22.88;20.88;;;8.60;99.90;;;;;;4908980;29;20040;-80
2022/12/28 07:52:46;;;;;;;23.77;21.67;;;8.70;99.90;;;;;;4892880;29;20052;-70
2022/12/28 07:55:12;;;;;;;24.40;22.13;;;8.70;99.90;;;;;;4903659;29;20131;-71
2022/12/28 07:57:44;;;;;;;25.65;23.27;;;8.60;99.90;;;;;;4879869;29;20044;-81
2022/12/28 08:00:10;;;;;;;24.80;22.50;;;8.70;99.90;;;;;;4907601;29;20130;-79
2022/12/28 08:02:36;;;;;;;24.77;22.35;;;8.60;99.90;;;;;;4907633;29;20064;-80
2022/12/28 08:05:02;;;;;;;26.35;23.95;;;8.70;99.90;;;;;;4911039;29;20036;-82
2022/12/28 08:07:31;;;;;;;24.80;22.40;;;8.60;99.90;;;;;;4907745;29;20059;-80
2022/12/28 08:09:56;;;;;;;26.50;24.05;;;8.70;99.90;;;;;;4879973;29;20052;-79
2022/12/28 08:12:22;;;;;;;23.80;21.60;;;8.60;99.90;;;;;;4904464;29;20044;-80
2022/12/28 08:14:48;;;;;;;24.33;22.13;;;8.60;99.90;;;;;;4880577;29;20051;-80
2022/12/28 08:17:16;;;;;;;25.02;22.65;;;8.70;99.90;;;;;;4908262;29;20044;-82
2022/12/28 08:19:45;;;;;;;22.85;20.67;;;8.70;99.90;;;;;;4891529;29;20055;-81
2022/12/28 08:22:10;;;;;;;21.80;19.75;;;8.70;99.90;;;;;;4877787;29;20169;-79
2022/12/28 08:24:36;;;;;;;21.33;19.35;;;8.70;99.90;;;;;;4910267;28;20055;-81
2022/12/28 08:27:02;;;;;;;21.17;19.13;;;8.70;99.90;;;;;;4907579;29;20484;-81
2022/12/28 08:29:28;;;;;;;21.73;19.83;;;8.70;99.90;;;;;;4911247;29;20052;-79
2022/12/28 08:31:54;;;;;;;19.92;18.13;;;8.80;99.90;;;;;;4907772;29;20054;-80
2022/12/28 08:34:25;;;;;;;19.23;17.42;;;8.80;99.90;;;;;;4897199;28;20425;-80
2022/12/28 08:36:52;;;;;;;18.88;17.17;;;8.80;99.90;;;;;;4889888;29;20051;-82
2022/12/28 08:39:18;;;;;;;17.77;16.08;;;8.80;99.90;;;;;;4911258;29;20055;-81
2022/12/28 08:41:44;;;;;;;16.98;14.88;;;8.80;99.90;;;;;;4910084;29;20047;-82
2022/12/28 08:44:10;;;;;;;17.25;15.60;;;8.80;99.90;;;;;;4877656;29;20482;-81
2022/12/28 08:46:36;;;;;;;17.20;15.60;;;8.80;99.90;;;;;;4896499;29;20043;-82
2022/12/28 08:49:04;;;;;;;16.77;15.13;;;8.80;99.90;;;;;;4916910;29;20137;-81
2022/12/28 08:51:31;;;;;;;17.52;15.82;;;8.80;99.90;;;;;;4916060;29;20083;-81
2022/12/28 08:53:58;;;;;;;17.88;15.90;;;8.90;99.90;;;;;;4909900;29;20059;-82
2022/12/28 08:56:27;;;;;;;19.02;16.98;;;8.90;99.90;;;;;;4913173;29;20105;-81
2022/12/28 08:58:54;;;;;;;19.23;17.33;;;8.90;99.90;;;;;;4910211;29;20394;-80
2022/12/28 09:01:23;;;;;;;18.88;17.08;;;8.90;99.90;;;;;;4914881;29;20526;-81
2022/12/28 09:03:51;;;;;;;20.67;18.50;;;8.90;99.90;;;;;;4895997;29;20325;-82
2022/12/28 09:06:20;;;;;;;18.05;16.38;;;8.90;99.90;;;;;;4910633;29;20122;-82
2022/12/28 09:08:54;;;;;;;19.33;17.52;;;8.90;99.90;;;;;;4920319;29;20039;-70
2022/12/28 09:11:20;;;;;;;17.92;16.33;;;8.90;99.90;;;;;;4909620;29;20058;-70
2022/12/28 09:13:47;;;;;;;17.92;16.30;;;9.00;99.90;;;;;;4896130;29;20182;-70
2022/12/28 09:16:19;;;;;;;17.52;15.80;;;9.00;99.90;;;;;;4873870;29;20055;-70
2022/12/28 09:18:46;;;;;;;17.60;16.00;;;9.00;99.90;;;;;;4887486;29;20052;-69
2022/12/28 09:21:17;;;;;;;16.15;14.65;;;9.00;99.90;;;;;;4909119;29;20050;-71
2022/12/28 09:23:45;;;;;;;16.55;14.95;;;9.00;99.90;;;;;;4907160;29;20258;-70
2022/12/28 09:26:22;;;;;;;16.70;14.90;;;9.00;99.90;;;;;;4906883;29;20051;-70
2022/12/28 09:28:57;;;;;;;14.95;13.63;;;9.10;99.90;;;;;;4924214;28;20568;-70
2022/12/28 09:31:25;;;;;;;14.20;12.85;;;9.10;99.90;;;;;;4908623;29;20390;-70
2022/12/28 09:34:00;;;;;;;14.73;13.32;;;9.10;99.90;;;;;;4909558;29;20047;-81
2022/12/28 09:36:34;;;;;;;16.15;14.48;;;9.10;99.90;;;;;;4894484;29;20127;-81
2022/12/28 09:39:03;;;;;;;14.60;13.20;;;9.10;99.90;;;;;;4909334;29;20044;-79
2022/12/28 09:41:51;;;;;;;14.68;13.48;;;9.20;99.90;;;;;;4892898;29;20090;-79
2022/12/28 09:44:35;;;;;;;15.75;14.35;;;9.10;99.90;;;;;;4898258;29;20043;-81
2022/12/28 09:47:08;;;;;;;15.07;13.68;;;9.20;99.90;;;;;;4905886;29;20134;-80
2022/12/28 09:49:52;;;;;;;15.05;13.65;;;9.20;99.90;;;;;;4894666;29;20047;-77
2022/12/28 09:53:01;;;;;;;15.50;13.90;;;9.20;99.90;;;;;;4895727;29;20126;-79
2022/12/28 09:55:28;;;;;;;14.52;13.23;;;9.20;99.90;;;;;;4890805;29;20137;-79
2022/12/28 09:57:57;;;;;;;15.60;14.18;;;9.20;99.90;;;;;;4891838;29;20043;-80
2022/12/28 10:00:27;;;;;;;15.32;13.93;;;9.30;99.90;;;;;;4896943;29;20075;-78
2022/12/28 10:02:58;;;;;;;15.45;13.98;;;9.30;99.90;;;;;;4913088;29;20103;-79
2022/12/28 10:05:25;;;;;;;15.48;14.07;;;9.30;99.90;;;;;;4910498;29;20054;-77
2022/12/28 10:07:53;;;;;;;15.25;13.85;;;9.30;99.90;;;;;;4913357;29;20059;-79
2022/12/28 10:10:22;;;;;;;15.20;13.80;;;9.30;99.90;;;;;;4907359;29;20056;-79
2022/12/28 10:12:49;;;;;;;14.32;13.02;;;9.30;99.90;;;;;;4911119;29;20051;-78
2022/12/28 10:15:16;;;;;;;13.70;12.50;;;9.20;99.90;;;;;;4910298;29;20054;-77
2022/12/28 10:17:43;;;;;;;12.65;11.55;;;9.30;99.90;;;;;;4909328;29;20052;-78
2022/12/28 10:20:17;;;;;;;13.60;12.40;;;9.40;99.90;;;;;;4889066;29;20043;-78
2022/12/28 10:22:47;;;;;;;14.48;13.18;;;9.30;99.90;;;;;;4906731;29;20142;-77
2022/12/28 10:25:23;;;;;;;13.48;12.27;;;9.30;99.90;;;;;;4894390;29;20553;-79
2022/12/28 10:27:49;;;;;;;12.90;11.70;;;9.40;99.90;;;;;;4911376;29;20126;-77
2022/12/28 10:30:22;;;;;;;13.73;12.48;;;9.30;99.90;;;;;;4913803;29;20047;-79
2022/12/28 10:32:57;;;;;;;13.25;11.95;;;9.40;99.90;;;;;;4913094;29;20457;-79
2022/12/28 10:35:53;;;;;;;13.77;12.38;;;9.40;99.90;;;;;;4912896;29;20042;-76
2022/12/28 10:38:19;;;;;;;15.27;13.77;;;9.30;99.90;;;;;;4911724;29;20546;-79
2022/12/28 10:40:51;;;;;;;14.77;13.38;;;9.30;99.90;;;;;;4910875;29;20055;-81
2022/12/28 10:43:20;;;;;;;16.17;14.68;;;9.40;99.90;;;;;;4892868;29;20051;-79
2022/12/28 10:45:49;;;;;;;15.40;13.88;;;9.30;99.90;;;;;;4897878;29;20040;-79
2022/12/28 10:48:20;;;;;;;14.95;13.65;;;9.30;99.90;;;;;;4902791;29;20466;-80
2022/12/28 10:51:10;;;;;;;14.95;13.60;;;9.40;99.90;;;;;;4922489;28;20111;-79
2022/12/28 10:53:39;;;;;;;;;;;9.40;99.90;;;;;;4909744;29;20517;-79
2022/12/28 10:56:20;;;;;;;15.43;13.82;;;9.30;99.90;;;;;;4903924;29;19923;-80
2022/12/28 10:58:48;;;;;;;16.80;15.13;;;9.30;99.90;;;;;;4921420;28;20585;-80
2022/12/28 11:01:14;;;;;;;14.75;13.35;;;9.30;99.90;;;;;;4909799;29;20414;-80
2022/12/28 11:04:04;;;;;;;14.82;13.52;;;9.30;99.90;;;;;;4911589;29;20067;-79
2022/12/28 11:06:35;;;;;;;14.40;13.00;;;9.30;99.90;;;;;;4912096;29;20930;-81
2022/12/28 11:09:19;;;;;;;14.63;13.23;;;9.30;99.90;;;;;;4909116;29;20055;-79
2022/12/28 11:11:46;;;;;;;13.18;11.85;;;9.30;99.90;;;;;;4893003;29;20047;-81
2022/12/28 11:14:11;;;;;;;13.07;11.77;;;9.30;99.90;;;;;;4885316;29;20054;-81
2022/12/28 11:16:39;;;;;;;12.23;11.02;;;9.30;99.90;;;;;;4909083;29;20055;-83
2022/12/28 11:19:05;;;;;;;12.40;11.18;;;9.30;99.90;;;;;;4891236;29;20459;-82
2022/12/28 11:21:33;;;;;;;11.50;10.38;;;9.30;99.90;;;;;;4910064;29;20046;-81
2022/12/28 11:23:59;;;;;;;11.60;10.43;;;9.30;99.90;;;;;;4926769;28;20051;-82
2022/12/28 11:26:27;;;;;;;10.90;9.45;;;9.20;99.90;;;;;;4905274;29;20040;-72
2022/12/28 11:28:54;;;;;;;11.02;9.93;;;9.30;99.90;;;;;;4898459;29;20490;-73
2022/12/28 11:31:36;;;;;;;10.45;9.35;;;9.30;99.90;;;;;;4915034;29;20051;-70
2022/12/28 11:34:05;;;;;;;11.70;10.35;;;9.30;99.90;;;;;;4918571;29;20078;-70
2022/12/28 11:36:38;;;;;;;10.10;9.07;;;9.30;99.90;;;;;;4911683;29;20094;-82
2022/12/28 11:39:25;;;;;;;10.52;9.43;;;9.20;99.90;;;;;;4899390;29;20079;-80
2022/12/28 11:41:59;;;;;;;11.10;9.75;;;9.20;99.90;;;;;;4915030;29;20347;-80
2022/12/28 11:44:34;;;;;;;9.95;8.98;;;9.20;99.90;;;;;;4895266;29;20042;-79
2022/12/28 11:47:15;;;;;;;10.95;9.45;;;9.30;99.90;;;;;;4902318;29;20213;-81
2022/12/28 11:49:46;;;;;;;10.60;9.60;;;9.30;99.90;;;;;;4923707;28;20122;-81
2022/12/28 11:52:15;;;;;;;10.35;9.35;;;9.30;99.90;;;;;;4913509;29;20106;-80
2022/12/28 11:54:59;;;;;;;10.95;9.63;;;9.20;99.90;;;;;;4907665;29;20748;-79
2022/12/28 11:57:37;;;;;;;9.50;8.60;;;9.30;99.90;;;;;;4895362;29;20051;-79
2022/12/28 12:00:18;;;;;;;10.75;9.68;;;9.30;99.90;;;;;;4892467;29;20115;-80
2022/12/28 12:03:04;;;;;;;10.18;9.23;;;9.30;99.90;;;;;;4913330;29;20066;-82
2022/12/28 12:05:36;;;;;;;10.48;9.48;;;9.30;99.90;;;;;;4922993;29;20062;-80
2022/12/28 12:08:22;;;;;;;10.20;9.13;;;9.30;99.90;;;;;;4911180;29;20043;-79
2022/12/28 12:11:08;;;;;;;9.95;8.95;;;9.30;99.90;;;;;;4909005;28;20047;-81
2022/12/28 12:13:48;;;;;;;8.30;7.50;;;9.30;99.90;;;;;;4895465;28;20059;-83
2022/12/28 12:16:36;;;;;;;10.95;9.85;;;9.30;99.90;;;;;;4886010;29;20351;-80
2022/12/28 12:19:05;;;;;;;10.07;9.07;;;9.30;99.90;;;;;;4925266;29;20481;-80
2022/12/28 12:21:38;;;;;;;9.75;8.85;;;9.30;99.90;;;;;;4919924;29;20515;-80
2022/12/28 12:24:25;;;;;;;9.95;8.95;;;9.20;99.90;;;;;;4907352;29;20071;-79
2022/12/28 12:27:15;;;;;;;11.13;10.02;;;9.30;99.90;;;;;;4900132;29;20040;-80
2022/12/28 12:29:47;;;;;;;11.68;10.57;;;9.30;99.90;;;;;;4908964;29;20337;-78
2022/12/28 12:32:19;;;;;;;11.65;10.63;;;9.30;99.90;;;;;;4914194;29;20426;-81
2022/12/28 12:34:58;;;;;;;11.80;10.70;;;9.30;99.90;;;;;;4903256;29;20134;-79
2022/12/28 12:37:52;;;;;;;12.65;11.45;;;9.30;99.90;;;;;;4901521;29;20048;-81
2022/12/28 12:40:18;;;;;;;12.43;10.73;;;9.20;99.90;;;;;;4909806;29;20059;-81
2022/12/28 12:42:56;;;;;;;10.98;9.60;;;9.30;99.90;;;;;;4904978;29;20482;-80
2022/12/28 12:46:00;;;;;;;10.68;9.68;;;9.20;99.90;;;;;;4908924;29;20314;-80
2022/12/28 12:48:56;;;;;;;10.40;9.30;;;9.30;99.90;;;;;;4912755;29;20525;-80
2022/12/28 12:51:31;;;;;;;9.82;8.82;;;9.20;99.90;;;;;;4907658;29;20178;-70
2022/12/28 12:54:23;;;;;;;10.23;9.13;;;9.20;99.90;;;;;;4911596;29;20043;-73
2022/12/28 12:57:11;;;;;;;9.35;8.45;;;9.20;99.90;;;;;;4900102;29;20039;-73
2022/12/28 13:00:16;;;;;;;8.30;7.50;;;9.20;99.90;;;;;;4912463;29;20056;-71
2022/12/28 13:03:13;;;;;;;7.47;6.78;;;9.20;99.90;;;;;;4905224;29;20115;-80
2022/12/28 13:05:44;;;;;;;7.90;7.13;;;9.30;99.90;;;;;;4911554;29;20128;-84
2022/12/28 13:08:21;;;;;;;8.30;7.55;;;9.20;99.90;;;;;;4910390;29;20062;-80
2022/12/28 13:10:48;;;;;;;6.97;6.30;;;9.20;99.90;;;;;;4892055;29;20151;-76
2022/12/28 13:13:27;;;;;;;7.65;6.95;;;9.20;99.90;;;;;;4890198;29;20062;-79
2022/12/28 13:15:59;;;;;;;8.00;7.20;;;9.30;99.90;;;;;;4914471;29;20051;-80
2022/12/28 13:18:25;;;;;;;7.38;6.68;;;9.20;99.90;;;;;;4908010;29;20083;-81
2022/12/28 13:20:59;;;;;;;6.82;6.22;;;9.30;99.90;;;;;;4882125;29;20060;-79
2022/12/28 13:23:26;;;;;;;7.07;6.38;;;9.30;99.90;;;;;;4911983;29;20805;-81
2022/12/28 13:25:55;;;;;;;7.10;6.40;;;9.20;99.90;;;;;;4909808;29;21576;-79